sensor_id;sensor_type;location;lat;lon;timestamp;temperature;humidity
28460;DHT22;32528;45.712;9.192;2023-09-12T00:00:06;20.60;99.90
28460;DHT22;32528;45.712;9.192;2023-09-12T00:02:12;20.60;99.90
28460;DHT22;32528;45.712;9.192;2023-09-12T00:04:12;20.50;99.90
28460;DHT22;32528;45.712;9.192;2023-09-12T00:06:13;20.50;99.90
28460;DHT22;32528;45.712;9.192;2023-09-12T00:08:14;20.50;99.90
28460;DHT22;32528;45.712;9.192;2023-09-12T00:10:14;20.60;99.90
28460;DHT22;32528;45.712;9.192;2023-09-12T00:12:15;20.50;99.90
28460;DHT22;32528;45.712;9.192;2023-09-12T00:14:16;20.60;99.90
28460;DHT22;32528;45.712;9.192;2023-09-12T00:16:17;20.50;99.90
28460;DHT22;32528;45.712;9.192;2023-09-12T00:18:18;20.50;99.90
28460;DHT22;32528;45.712;9.192;2023-09-12T00:20:18;20.50;99.90
28460;DHT22;32528;45.712;9.192;2023-09-12T00:22:19;20.50;99.90
28460;DHT22;32528;45.712;9.192;2023-09-12T00:24:20;20.50;99.90
28460;DHT22;32528;45.712;9.192;2023-09-12T00:26:20;20.40;99.90
28460;DHT22;32528;45.712;9.192;2023-09-12T00:28:22;20.40;99.90
28460;DHT22;32528;45.712;9.192;2023-09-12T00:30:22;20.40;99.90
28460;DHT22;32528;45.712;9.192;2023-09-12T00:32:23;20.40;99.90
28460;DHT22;32528;45.712;9.192;2023-09-12T00:34:23;20.40;99.90
28460;DHT22;32528;45.712;9.192;2023-09-12T00:36:24;20.30;99.90
28460;DHT22;32528;45.712;9.192;2023-09-12T00:38:25;20.30;99.90
28460;DHT22;32528;45.712;9.192;2023-09-12T00:40:25;20.30;99.90
28460;DHT22;32528;45.712;9.192;2023-09-12T00:42:26;20.30;99.90
28460;DHT22;32528;45.712;9.192;2023-09-12T00:44:27;20.30;99.90
28460;DHT22;32528;45.712;9.192;2023-09-12T00:46:27;20.30;99.90
28460;DHT22;32528;45.712;9.192;2023-09-12T00:48:28;20.30;99.90
28460;DHT22;32528;45.712;9.192;2023-09-12T00:50:30;20.30;99.90
28460;DHT22;32528;45.712;9.192;2023-09-12T00:52:31;20.30;99.90
28460;DHT22;32528;45.712;9.192;2023-09-12T00:54:33;20.30;99.90
28460;DHT22;32528;45.712;9.192;2023-09-12T00:56:34;20.30;99.90
28460;DHT22;32528;45.712;9.192;2023-09-12T00:58:35;20.30;99.90
28460;DHT22;32528;45.712;9.192;2023-09-12T01:00:35;20.30;99.90
28460;DHT22;32528;45.712;9.192;2023-09-12T01:02:40;20.40;99.90
28460;DHT22;32528;45.712;9.192;2023-09-12T01:04:41;20.50;99.90
28460;DHT22;32528;45.712;9.192;2023-09-12T01:06:43;20.50;99.90
28460;DHT22;32528;45.712;9.192;2023-09-12T01:08:43;20.50;99.90
28460;DHT22;32528;45.712;9.192;2023-09-12T01:10:44;20.50;99.90
28460;DHT22;32528;45.712;9.192;2023-09-12T01:12:47;20.50;99.90
28460;DHT22;32528;45.712;9.192;2023-09-12T01:14:47;20.50;99.90
28460;DHT22;32528;45.712;9.192;2023-09-12T01:16:48;20.50;99.90
28460;DHT22;32528;45.712;9.192;2023-09-12T01:18:49;20.50;99.90
28460;DHT22;32528;45.712;9.192;2023-09-12T01:21:07;20.60;99.90
28460;DHT22;32528;45.712;9.192;2023-09-12T01:26:02;20.50;99.90
28460;DHT22;32528;45.712;9.192;2023-09-12T01:27:47;20.50;99.90
28460;DHT22;32528;45.712;9.192;2023-09-12T01:29:49;20.50;99.90
28460;DHT22;32528;45.712;9.192;2023-09-12T01:31:51;20.50;99.90
28460;DHT22;32528;45.712;9.192;2023-09-12T01:33:56;20.50;99.90
28460;DHT22;32528;45.712;9.192;2023-09-12T01:35:57;20.50;99.90
28460;DHT22;32528;45.712;9.192;2023-09-12T01:37:58;20.40;99.90
28460;DHT22;32528;45.712;9.192;2023-09-12T01:39:59;20.40;99.90
28460;DHT22;32528;45.712;9.192;2023-09-12T01:42:00;20.40;99.90
28460;DHT22;32528;45.712;9.192;2023-09-12T01:44:02;20.40;99.90
28460;DHT22;32528;45.712;9.192;2023-09-12T01:46:03;20.40;99.90
28460;DHT22;32528;45.712;9.192;2023-09-12T01:48:04;20.40;99.90
28460;DHT22;32528;45.712;9.192;2023-09-12T01:50:05;20.40;99.90
28460;DHT22;32528;45.712;9.192;2023-09-12T01:52:09;20.40;99.90
28460;DHT22;32528;45.712;9.192;2023-09-12T01:54:10;20.40;99.90
28460;DHT22;32528;45.712;9.192;2023-09-12T01:56:11;20.50;99.90
28460;DHT22;32528;45.712;9.192;2023-09-12T01:58:12;20.40;99.90
28460;DHT22;32528;45.712;9.192;2023-09-12T02:00:13;20.50;99.90
28460;DHT22;32528;45.712;9.192;2023-09-12T02:02:17;20.50;99.90
28460;DHT22;32528;45.712;9.192;2023-09-12T02:04:18;20.50;99.90
28460;DHT22;32528;45.712;9.192;2023-09-12T02:06:18;20.50;99.90
28460;DHT22;32528;45.712;9.192;2023-09-12T02:08:19;20.50;99.90
28460;DHT22;32528;45.712;9.192;2023-09-12T02:10:20;20.50;99.90
28460;DHT22;32528;45.712;9.192;2023-09-12T02:12:21;20.50;99.90
28460;DHT22;32528;45.712;9.192;2023-09-12T02:14:21;20.50;99.90
28460;DHT22;32528;45.712;9.192;2023-09-12T02:16:22;20.60;99.90
28460;DHT22;32528;45.712;9.192;2023-09-12T02:18:23;20.60;99.90
28460;DHT22;32528;45.712;9.192;2023-09-12T02:20:23;20.60;99.90
28460;DHT22;32528;45.712;9.192;2023-09-12T02:22:24;20.70;99.90
28460;DHT22;32528;45.712;9.192;2023-09-12T02:24:26;20.70;99.90
28460;DHT22;32528;45.712;9.192;2023-09-12T02:26:26;20.70;99.90
28460;DHT22;32528;45.712;9.192;2023-09-12T02:28:27;20.70;99.90
28460;DHT22;32528;45.712;9.192;2023-09-12T02:30:27;20.70;99.90
28460;DHT22;32528;45.712;9.192;2023-09-12T02:32:28;20.70;99.90
28460;DHT22;32528;45.712;9.192;2023-09-12T02:34:30;20.60;99.90
28460;DHT22;32528;45.712;9.192;2023-09-12T02:36:30;20.60;99.90
28460;DHT22;32528;45.712;9.192;2023-09-12T02:38:31;20.50;99.90
28460;DHT22;32528;45.712;9.192;2023-09-12T02:40:32;20.50;99.90
28460;DHT22;32528;45.712;9.192;2023-09-12T02:42:33;20.50;99.90
28460;DHT22;32528;45.712;9.192;2023-09-12T02:44:34;20.50;99.90
28460;DHT22;32528;45.712;9.192;2023-09-12T02:46:34;20.50;99.90
28460;DHT22;32528;45.712;9.192;2023-09-12T02:48:35;20.60;99.90
28460;DHT22;32528;45.712;9.192;2023-09-12T02:50:35;20.60;99.90
28460;DHT22;32528;45.712;9.192;2023-09-12T02:52:36;20.50;99.90
28460;DHT22;32528;45.712;9.192;2023-09-12T02:54:37;20.50;99.90
28460;DHT22;32528;45.712;9.192;2023-09-12T02:56:37;20.50;99.90
28460;DHT22;32528;45.712;9.192;2023-09-12T02:58:38;20.50;99.90
28460;DHT22;32528;45.712;9.192;2023-09-12T03:00:39;20.40;99.90
28460;DHT22;32528;45.712;9.192;2023-09-12T03:02:41;20.50;99.90
28460;DHT22;32528;45.712;9.192;2023-09-12T03:04:42;20.40;99.90
28460;DHT22;32528;45.712;9.192;2023-09-12T03:06:43;20.40;99.90
28460;DHT22;32528;45.712;9.192;2023-09-12T03:08:44;20.40;99.90
28460;DHT22;32528;45.712;9.192;2023-09-12T03:10:45;20.40;99.90
28460;DHT22;32528;45.712;9.192;2023-09-12T03:12:53;20.50;99.90
28460;DHT22;32528;45.712;9.192;2023-09-12T03:14:53;20.40;99.90
28460;DHT22;32528;45.712;9.192;2023-09-12T03:16:54;20.50;99.90
28460;DHT22;32528;45.712;9.192;2023-09-12T03:18:55;20.50;99.90
28460;DHT22;32528;45.712;9.192;2023-09-12T03:20:55;20.50;99.90
28460;DHT22;32528;45.712;9.192;2023-09-12T03:22:56;20.50;99.90
28460;DHT22;32528;45.712;9.192;2023-09-12T03:24:56;20.40;99.90
28460;DHT22;32528;45.712;9.192;2023-09-12T03:26:57;20.40;99.90
28460;DHT22;32528;45.712;9.192;2023-09-12T03:28:58;20.40;99.90
28460;DHT22;32528;45.712;9.192;2023-09-12T03:31:08;20.40;99.90
28460;DHT22;32528;45.712;9.192;2023-09-12T03:33:09;20.40;99.90
28460;DHT22;32528;45.712;9.192;2023-09-12T03:35:10;20.40;99.90
28460;DHT22;32528;45.712;9.192;2023-09-12T03:37:10;20.40;99.90
28460;DHT22;32528;45.712;9.192;2023-09-12T03:39:11;20.40;99.90
28460;DHT22;32528;45.712;9.192;2023-09-12T03:41:13;20.30;99.90
28460;DHT22;32528;45.712;9.192;2023-09-12T03:43:14;20.30;99.90
28460;DHT22;32528;45.712;9.192;2023-09-12T03:45:14;20.30;99.90
28460;DHT22;32528;45.712;9.192;2023-09-12T03:47:15;20.30;99.90
28460;DHT22;32528;45.712;9.192;2023-09-12T03:49:16;20.30;99.90
28460;DHT22;32528;45.712;9.192;2023-09-12T03:51:16;20.20;99.90
28460;DHT22;32528;45.712;9.192;2023-09-12T03:53:17;20.20;99.90
28460;DHT22;32528;45.712;9.192;2023-09-12T03:55:18;20.20;99.90
28460;DHT22;32528;45.712;9.192;2023-09-12T03:57:19;20.20;99.90
28460;DHT22;32528;45.712;9.192;2023-09-12T03:59:19;20.20;99.90
28460;DHT22;32528;45.712;9.192;2023-09-12T04:01:21;20.20;99.90
28460;DHT22;32528;45.712;9.192;2023-09-12T04:03:21;20.20;99.90
28460;DHT22;32528;45.712;9.192;2023-09-12T04:05:22;20.20;99.90
28460;DHT22;32528;45.712;9.192;2023-09-12T04:07:23;20.20;99.90
28460;DHT22;32528;45.712;9.192;2023-09-12T04:09:24;20.20;99.90
28460;DHT22;32528;45.712;9.192;2023-09-12T04:11:24;20.10;99.90
28460;DHT22;32528;45.712;9.192;2023-09-12T04:13:25;20.20;99.90
28460;DHT22;32528;45.712;9.192;2023-09-12T04:15:25;20.10;99.90
28460;DHT22;32528;45.712;9.192;2023-09-12T04:17:26;20.00;99.90
28460;DHT22;32528;45.712;9.192;2023-09-12T04:19:26;20.00;99.90
28460;DHT22;32528;45.712;9.192;2023-09-12T04:21:27;20.00;99.90
28460;DHT22;32528;45.712;9.192;2023-09-12T04:23:28;19.90;99.90
28460;DHT22;32528;45.712;9.192;2023-09-12T04:25:29;19.90;99.90
28460;DHT22;32528;45.712;9.192;2023-09-12T04:27:31;19.80;99.90
28460;DHT22;32528;45.712;9.192;2023-09-12T04:29:34;19.80;99.90
28460;DHT22;32528;45.712;9.192;2023-09-12T04:31:36;19.80;99.90
28460;DHT22;32528;45.712;9.192;2023-09-12T04:33:37;19.80;99.90
28460;DHT22;32528;45.712;9.192;2023-09-12T04:35:37;19.80;99.90
28460;DHT22;32528;45.712;9.192;2023-09-12T04:37:38;19.80;99.90
28460;DHT22;32528;45.712;9.192;2023-09-12T04:39:39;19.80;99.90
28460;DHT22;32528;45.712;9.192;2023-09-12T04:41:39;19.80;99.90
28460;DHT22;32528;45.712;9.192;2023-09-12T04:43:40;19.80;99.90
28460;DHT22;32528;45.712;9.192;2023-09-12T04:45:41;19.70;99.90
28460;DHT22;32528;45.712;9.192;2023-09-12T04:47:41;19.80;99.90
28460;DHT22;32528;45.712;9.192;2023-09-12T04:49:43;19.80;99.90
28460;DHT22;32528;45.712;9.192;2023-09-12T04:51:43;19.80;99.90
28460;DHT22;32528;45.712;9.192;2023-09-12T04:53:44;19.80;99.90
28460;DHT22;32528;45.712;9.192;2023-09-12T04:55:45;19.80;99.90
28460;DHT22;32528;45.712;9.192;2023-09-12T04:57:45;19.80;99.90
28460;DHT22;32528;45.712;9.192;2023-09-12T04:59:46;19.80;99.90
28460;DHT22;32528;45.712;9.192;2023-09-12T05:01:46;19.80;99.90
28460;DHT22;32528;45.712;9.192;2023-09-12T05:03:48;19.80;99.90
28460;DHT22;32528;45.712;9.192;2023-09-12T05:05:49;19.80;99.90
28460;DHT22;32528;45.712;9.192;2023-09-12T05:07:50;19.70;99.90
28460;DHT22;32528;45.712;9.192;2023-09-12T05:09:54;19.70;99.90
28460;DHT22;32528;45.712;9.192;2023-09-12T05:11:55;19.70;99.90
28460;DHT22;32528;45.712;9.192;2023-09-12T05:13:55;19.70;99.90
28460;DHT22;32528;45.712;9.192;2023-09-12T05:15:57;19.80;99.90
28460;DHT22;32528;45.712;9.192;2023-09-12T05:17:58;19.80;99.90
28460;DHT22;32528;45.712;9.192;2023-09-12T05:19:58;19.80;99.90
28460;DHT22;32528;45.712;9.192;2023-09-12T05:21:59;19.80;99.90
28460;DHT22;32528;45.712;9.192;2023-09-12T05:24:00;19.90;99.90
28460;DHT22;32528;45.712;9.192;2023-09-12T05:26:00;19.80;99.90
28460;DHT22;32528;45.712;9.192;2023-09-12T05:28:01;19.90;99.90
28460;DHT22;32528;45.712;9.192;2023-09-12T05:30:03;19.90;99.90
28460;DHT22;32528;45.712;9.192;2023-09-12T05:32:04;19.90;99.90
28460;DHT22;32528;45.712;9.192;2023-09-12T05:34:05;20.00;99.90
28460;DHT22;32528;45.712;9.192;2023-09-12T05:36:06;20.00;99.90
28460;DHT22;32528;45.712;9.192;2023-09-12T05:38:06;20.10;99.90
28460;DHT22;32528;45.712;9.192;2023-09-12T05:40:07;20.10;99.90
28460;DHT22;32528;45.712;9.192;2023-09-12T05:42:08;20.20;99.90
28460;DHT22;32528;45.712;9.192;2023-09-12T05:44:08;20.20;99.90
28460;DHT22;32528;45.712;9.192;2023-09-12T05:46:10;20.20;99.90
28460;DHT22;32528;45.712;9.192;2023-09-12T05:48:11;20.30;99.90
28460;DHT22;32528;45.712;9.192;2023-09-12T05:50:12;20.30;99.90
28460;DHT22;32528;45.712;9.192;2023-09-12T05:52:13;20.30;99.90
28460;DHT22;32528;45.712;9.192;2023-09-12T05:54:13;20.40;99.90
28460;DHT22;32528;45.712;9.192;2023-09-12T05:56:15;20.40;99.90
28460;DHT22;32528;45.712;9.192;2023-09-12T05:58:15;20.40;99.90
28460;DHT22;32528;45.712;9.192;2023-09-12T06:00:16;20.50;99.90
28460;DHT22;32528;45.712;9.192;2023-09-12T06:02:17;20.50;99.90
28460;DHT22;32528;45.712;9.192;2023-09-12T06:04:18;20.50;99.90
28460;DHT22;32528;45.712;9.192;2023-09-12T06:06:18;20.40;99.90
28460;DHT22;32528;45.712;9.192;2023-09-12T06:08:19;20.50;99.90
28460;DHT22;32528;45.712;9.192;2023-09-12T06:10:20;20.60;99.90
28460;DHT22;32528;45.712;9.192;2023-09-12T06:12:20;20.70;99.90
28460;DHT22;32528;45.712;9.192;2023-09-12T06:14:21;20.70;99.90
28460;DHT22;32528;45.712;9.192;2023-09-12T06:16:21;20.80;99.90
28460;DHT22;32528;45.712;9.192;2023-09-12T06:18:22;20.90;99.90
28460;DHT22;32528;45.712;9.192;2023-09-12T06:20:24;20.90;99.90
28460;DHT22;32528;45.712;9.192;2023-09-12T06:22:24;21.10;99.90
28460;DHT22;32528;45.712;9.192;2023-09-12T06:24:25;21.20;99.90
28460;DHT22;32528;45.712;9.192;2023-09-12T06:26:26;21.20;99.90
28460;DHT22;32528;45.712;9.192;2023-09-12T06:28:27;21.40;99.90
28460;DHT22;32528;45.712;9.192;2023-09-12T06:30:28;21.50;99.90
28460;DHT22;32528;45.712;9.192;2023-09-12T06:32:28;21.60;99.90
28460;DHT22;32528;45.712;9.192;2023-09-12T06:34:29;21.80;99.90
28460;DHT22;32528;45.712;9.192;2023-09-12T06:36:29;22.00;99.90
28460;DHT22;32528;45.712;9.192;2023-09-12T06:38:30;22.20;99.90
28460;DHT22;32528;45.712;9.192;2023-09-12T06:40:31;22.30;99.90
28460;DHT22;32528;45.712;9.192;2023-09-12T06:42:31;22.40;99.90
28460;DHT22;32528;45.712;9.192;2023-09-12T06:44:32;22.60;99.90
28460;DHT22;32528;45.712;9.192;2023-09-12T06:46:33;22.70;99.60
28460;DHT22;32528;45.712;9.192;2023-09-12T06:48:36;22.80;99.40
28460;DHT22;32528;45.712;9.192;2023-09-12T06:50:36;23.00;99.30
28460;DHT22;32528;45.712;9.192;2023-09-12T06:52:38;23.00;99.30
28460;DHT22;32528;45.712;9.192;2023-09-12T06:54:39;23.10;99.20
28460;DHT22;32528;45.712;9.192;2023-09-12T06:56:39;23.20;99.10
28460;DHT22;32528;45.712;9.192;2023-09-12T06:58:42;23.20;98.70
28460;DHT22;32528;45.712;9.192;2023-09-12T07:00:43;23.20;99.10
28460;DHT22;32528;45.712;9.192;2023-09-12T07:02:44;23.20;98.90
28460;DHT22;32528;45.712;9.192;2023-09-12T07:04:44;23.20;98.80
28460;DHT22;32528;45.712;9.192;2023-09-12T07:06:45;23.20;98.70
28460;DHT22;32528;45.712;9.192;2023-09-12T07:08:45;23.20;98.60
28460;DHT22;32528;45.712;9.192;2023-09-12T07:10:46;23.20;98.50
28460;DHT22;32528;45.712;9.192;2023-09-12T07:12:47;23.30;98.80
28460;DHT22;32528;45.712;9.192;2023-09-12T07:14:47;23.30;98.30
28460;DHT22;32528;45.712;9.192;2023-09-12T07:16:48;23.40;98.30
28460;DHT22;32528;45.712;9.192;2023-09-12T07:18:48;23.50;98.60
28460;DHT22;32528;45.712;9.192;2023-09-12T07:20:59;23.70;98.20
28460;DHT22;32528;45.712;9.192;2023-09-12T07:23:00;23.80;98.00
28460;DHT22;32528;45.712;9.192;2023-09-12T07:25:01;23.90;97.70
28460;DHT22;32528;45.712;9.192;2023-09-12T07:27:01;24.00;97.20
28460;DHT22;32528;45.712;9.192;2023-09-12T07:29:03;24.10;97.40
28460;DHT22;32528;45.712;9.192;2023-09-12T07:31:05;24.30;97.10
28460;DHT22;32528;45.712;9.192;2023-09-12T07:33:06;24.30;97.10
28460;DHT22;32528;45.712;9.192;2023-09-12T07:35:07;24.40;96.80
28460;DHT22;32528;45.712;9.192;2023-09-12T07:37:07;24.40;96.40
28460;DHT22;32528;45.712;9.192;2023-09-12T07:39:08;24.60;96.00
28460;DHT22;32528;45.712;9.192;2023-09-12T07:41:09;24.60;95.70
28460;DHT22;32528;45.712;9.192;2023-09-12T07:43:10;24.70;95.70
28460;DHT22;32528;45.712;9.192;2023-09-12T07:45:11;24.80;95.20
28460;DHT22;32528;45.712;9.192;2023-09-12T07:47:12;24.80;94.80
28460;DHT22;32528;45.712;9.192;2023-09-12T07:49:13;24.90;94.70
28460;DHT22;32528;45.712;9.192;2023-09-12T07:51:14;25.00;94.80
28460;DHT22;32528;45.712;9.192;2023-09-12T07:53:15;25.00;93.90
28460;DHT22;32528;45.712;9.192;2023-09-12T07:55:15;25.00;93.70
28460;DHT22;32528;45.712;9.192;2023-09-12T07:57:16;25.10;93.80
28460;DHT22;32528;45.712;9.192;2023-09-12T07:59:17;25.10;93.90
28460;DHT22;32528;45.712;9.192;2023-09-12T08:01:17;25.10;94.10
28460;DHT22;32528;45.712;9.192;2023-09-12T08:03:18;24.90;93.90
28460;DHT22;32528;45.712;9.192;2023-09-12T08:05:18;24.80;93.90
28460;DHT22;32528;45.712;9.192;2023-09-12T08:07:19;24.80;94.10
28460;DHT22;32528;45.712;9.192;2023-09-12T08:09:20;24.70;94.40
28460;DHT22;32528;45.712;9.192;2023-09-12T08:11:21;24.60;94.60
28460;DHT22;32528;45.712;9.192;2023-09-12T08:13:21;24.60;94.60
28460;DHT22;32528;45.712;9.192;2023-09-12T08:15:22;24.80;94.30
28460;DHT22;32528;45.712;9.192;2023-09-12T08:17:22;24.90;94.50
28460;DHT22;32528;45.712;9.192;2023-09-12T08:19:23;24.90;94.50
28460;DHT22;32528;45.712;9.192;2023-09-12T08:21:24;25.00;94.30
28460;DHT22;32528;45.712;9.192;2023-09-12T08:23:25;25.20;94.10
28460;DHT22;32528;45.712;9.192;2023-09-12T08:25:25;25.20;93.90
28460;DHT22;32528;45.712;9.192;2023-09-12T08:27:27;25.20;93.80
28460;DHT22;32528;45.712;9.192;2023-09-12T08:29:28;25.30;93.60
28460;DHT22;32528;45.712;9.192;2023-09-12T08:31:29;25.40;93.80
28460;DHT22;32528;45.712;9.192;2023-09-12T08:33:29;25.60;93.40
28460;DHT22;32528;45.712;9.192;2023-09-12T08:35:30;25.80;92.90
28460;DHT22;32528;45.712;9.192;2023-09-12T08:37:30;25.90;92.90
28460;DHT22;32528;45.712;9.192;2023-09-12T08:39:39;25.90;93.00
28460;DHT22;32528;45.712;9.192;2023-09-12T08:41:40;25.90;92.80
28460;DHT22;32528;45.712;9.192;2023-09-12T08:43:40;25.90;92.70
28460;DHT22;32528;45.712;9.192;2023-09-12T08:45:41;26.10;92.50
28460;DHT22;32528;45.712;9.192;2023-09-12T08:47:45;26.20;92.30
28460;DHT22;32528;45.712;9.192;2023-09-12T08:49:46;26.40;92.10
28460;DHT22;32528;45.712;9.192;2023-09-12T08:51:47;26.40;92.20
28460;DHT22;32528;45.712;9.192;2023-09-12T08:53:47;26.40;92.30
28460;DHT22;32528;45.712;9.192;2023-09-12T08:55:48;26.50;92.00
28460;DHT22;32528;45.712;9.192;2023-09-12T08:57:50;26.50;91.90
28460;DHT22;32528;45.712;9.192;2023-09-12T08:59:51;26.60;92.20
28460;DHT22;32528;45.712;9.192;2023-09-12T09:01:52;26.60;91.80
28460;DHT22;32528;45.712;9.192;2023-09-12T09:03:53;26.60;91.40
28460;DHT22;32528;45.712;9.192;2023-09-12T09:05:53;26.60;91.50
28460;DHT22;32528;45.712;9.192;2023-09-12T09:07:54;26.60;91.80
28460;DHT22;32528;45.712;9.192;2023-09-12T09:09:55;26.70;91.20
28460;DHT22;32528;45.712;9.192;2023-09-12T09:11:56;26.80;91.50
28460;DHT22;32528;45.712;9.192;2023-09-12T09:13:57;26.90;91.60
28460;DHT22;32528;45.712;9.192;2023-09-12T09:16:10;26.90;91.10
28460;DHT22;32528;45.712;9.192;2023-09-12T09:18:12;27.00;91.20
28460;DHT22;32528;45.712;9.192;2023-09-12T09:20:22;27.10;91.00
28460;DHT22;32528;45.712;9.192;2023-09-12T09:22:23;27.10;90.50
28460;DHT22;32528;45.712;9.192;2023-09-12T09:24:24;27.10;90.70
28460;DHT22;32528;45.712;9.192;2023-09-12T09:26:25;27.30;90.80
28460;DHT22;32528;45.712;9.192;2023-09-12T09:28:26;27.30;90.20
28460;DHT22;32528;45.712;9.192;2023-09-12T09:30:39;27.40;90.20
28460;DHT22;32528;45.712;9.192;2023-09-12T09:32:40;27.20;90.10
28460;DHT22;32528;45.712;9.192;2023-09-12T09:34:41;27.10;90.10
28460;DHT22;32528;45.712;9.192;2023-09-12T09:36:43;27.20;90.40
28460;DHT22;32528;45.712;9.192;2023-09-12T09:38:44;27.20;90.10
28460;DHT22;32528;45.712;9.192;2023-09-12T09:40:45;27.10;90.20
28460;DHT22;32528;45.712;9.192;2023-09-12T09:42:45;27.20;89.80
28460;DHT22;32528;45.712;9.192;2023-09-12T09:44:47;27.20;89.90
28460;DHT22;32528;45.712;9.192;2023-09-12T09:46:51;27.10;89.40
28460;DHT22;32528;45.712;9.192;2023-09-12T09:48:54;27.00;90.30
28460;DHT22;32528;45.712;9.192;2023-09-12T09:51:01;27.00;90.30
28460;DHT22;32528;45.712;9.192;2023-09-12T09:53:02;27.00;90.20
28460;DHT22;32528;45.712;9.192;2023-09-12T09:55:06;26.90;90.50
28460;DHT22;32528;45.712;9.192;2023-09-12T09:57:07;26.80;90.10
28460;DHT22;32528;45.712;9.192;2023-09-12T09:59:07;26.90;90.40
28460;DHT22;32528;45.712;9.192;2023-09-12T10:01:08;26.90;90.60
28460;DHT22;32528;45.712;9.192;2023-09-12T10:03:09;26.90;90.40
28460;DHT22;32528;45.712;9.192;2023-09-12T10:05:11;26.90;90.60
28460;DHT22;32528;45.712;9.192;2023-09-12T10:07:12;27.00;90.60
28460;DHT22;32528;45.712;9.192;2023-09-12T10:09:14;27.10;90.60
28460;DHT22;32528;45.712;9.192;2023-09-12T10:11:16;27.00;90.30
28460;DHT22;32528;45.712;9.192;2023-09-12T10:13:16;27.10;90.30
28460;DHT22;32528;45.712;9.192;2023-09-12T10:15:19;27.40;90.20
28460;DHT22;32528;45.712;9.192;2023-09-12T10:17:19;27.50;89.60
28460;DHT22;32528;45.712;9.192;2023-09-12T10:19:25;27.70;88.40
28460;DHT22;32528;45.712;9.192;2023-09-12T10:21:28;27.80;87.40
28460;DHT22;32528;45.712;9.192;2023-09-12T10:23:43;27.80;87.60
28460;DHT22;32528;45.712;9.192;2023-09-12T10:25:44;27.80;87.50
28460;DHT22;32528;45.712;9.192;2023-09-12T10:27:45;27.80;86.80
28460;DHT22;32528;45.712;9.192;2023-09-12T10:29:46;27.80;86.40
28460;DHT22;32528;45.712;9.192;2023-09-12T10:31:50;27.90;86.70
28460;DHT22;32528;45.712;9.192;2023-09-12T10:33:50;28.10;86.50
28460;DHT22;32528;45.712;9.192;2023-09-12T10:35:51;28.30;85.60
28460;DHT22;32528;45.712;9.192;2023-09-12T10:37:52;28.20;86.10
28460;DHT22;32528;45.712;9.192;2023-09-12T10:39:54;28.20;85.00
28460;DHT22;32528;45.712;9.192;2023-09-12T10:41:56;28.20;86.00
28460;DHT22;32528;45.712;9.192;2023-09-12T10:43:58;28.30;85.50
28460;DHT22;32528;45.712;9.192;2023-09-12T10:46:01;28.20;85.20
28460;DHT22;32528;45.712;9.192;2023-09-12T10:48:03;28.10;86.30
28460;DHT22;32528;45.712;9.192;2023-09-12T10:50:04;28.00;85.60
28460;DHT22;32528;45.712;9.192;2023-09-12T10:52:05;28.00;85.40
28460;DHT22;32528;45.712;9.192;2023-09-12T10:54:06;28.00;85.80
28460;DHT22;32528;45.712;9.192;2023-09-12T10:58:13;28.20;85.90
28460;DHT22;32528;45.712;9.192;2023-09-12T11:00:14;28.40;86.10
28460;DHT22;32528;45.712;9.192;2023-09-12T11:06:30;28.70;84.20
28460;DHT22;32528;45.712;9.192;2023-09-12T11:08:35;28.80;83.60
28460;DHT22;32528;45.712;9.192;2023-09-12T11:10:36;28.90;83.40
28460;DHT22;32528;45.712;9.192;2023-09-12T11:12:37;29.00;83.40
28460;DHT22;32528;45.712;9.192;2023-09-12T11:14:57;29.00;82.00
28460;DHT22;32528;45.712;9.192;2023-09-12T11:19:20;29.50;81.10
28460;DHT22;32528;45.712;9.192;2023-09-12T11:21:42;29.70;80.30
28460;DHT22;32528;45.712;9.192;2023-09-12T11:23:43;29.80;80.30
28460;DHT22;32528;45.712;9.192;2023-09-12T11:26:06;30.20;78.70
28460;DHT22;32528;45.712;9.192;2023-09-12T11:28:07;30.50;78.10
28460;DHT22;32528;45.712;9.192;2023-09-12T11:30:08;30.50;76.80
28460;DHT22;32528;45.712;9.192;2023-09-12T11:32:08;30.50;76.30
28460;DHT22;32528;45.712;9.192;2023-09-12T11:34:09;30.50;75.60
28460;DHT22;32528;45.712;9.192;2023-09-12T11:36:12;30.60;74.70
28460;DHT22;32528;45.712;9.192;2023-09-12T11:38:14;30.30;75.80
28460;DHT22;32528;45.712;9.192;2023-09-12T11:42:26;30.40;73.10
28460;DHT22;32528;45.712;9.192;2023-09-12T11:44:27;30.30;73.00
28460;DHT22;32528;45.712;9.192;2023-09-12T11:46:28;30.20;73.60
28460;DHT22;32528;45.712;9.192;2023-09-12T11:48:29;30.10;74.30
28460;DHT22;32528;45.712;9.192;2023-09-12T11:50:31;30.20;75.20
28460;DHT22;32528;45.712;9.192;2023-09-12T11:52:35;30.30;73.10
28460;DHT22;32528;45.712;9.192;2023-09-12T11:54:36;30.30;72.70
28460;DHT22;32528;45.712;9.192;2023-09-12T11:56:37;30.20;71.50
28460;DHT22;32528;45.712;9.192;2023-09-12T11:58:39;30.00;70.60
28460;DHT22;32528;45.712;9.192;2023-09-12T12:00:47;30.00;71.30
28460;DHT22;32528;45.712;9.192;2023-09-12T12:02:48;30.10;72.00
28460;DHT22;32528;45.712;9.192;2023-09-12T12:04:48;30.10;70.70
28460;DHT22;32528;45.712;9.192;2023-09-12T12:06:51;30.00;71.20
28460;DHT22;32528;45.712;9.192;2023-09-12T12:08:51;30.20;72.40
28460;DHT22;32528;45.712;9.192;2023-09-12T12:10:55;30.20;71.50
28460;DHT22;32528;45.712;9.192;2023-09-12T12:12:55;30.20;71.10
28460;DHT22;32528;45.712;9.192;2023-09-12T12:14:56;30.30;71.80
28460;DHT22;32528;45.712;9.192;2023-09-12T12:16:56;30.40;71.30
28460;DHT22;32528;45.712;9.192;2023-09-12T12:18:57;30.40;70.70
28460;DHT22;32528;45.712;9.192;2023-09-12T12:20:58;30.40;72.00
28460;DHT22;32528;45.712;9.192;2023-09-12T12:22:58;30.30;71.00
28460;DHT22;32528;45.712;9.192;2023-09-12T12:25:05;30.20;71.40
28460;DHT22;32528;45.712;9.192;2023-09-12T12:27:06;30.30;71.20
28460;DHT22;32528;45.712;9.192;2023-09-12T12:29:08;30.30;71.20
28460;DHT22;32528;45.712;9.192;2023-09-12T12:31:09;30.40;70.20
28460;DHT22;32528;45.712;9.192;2023-09-12T12:33:10;30.70;70.30
28460;DHT22;32528;45.712;9.192;2023-09-12T12:35:16;30.70;68.40
28460;DHT22;32528;45.712;9.192;2023-09-12T12:37:16;30.50;67.40
28460;DHT22;32528;45.712;9.192;2023-09-12T12:39:18;30.40;67.80
28460;DHT22;32528;45.712;9.192;2023-09-12T12:41:22;30.50;68.90
28460;DHT22;32528;45.712;9.192;2023-09-12T12:43:23;30.50;67.80
28460;DHT22;32528;45.712;9.192;2023-09-12T12:45:24;30.70;68.30
28460;DHT22;32528;45.712;9.192;2023-09-12T12:47:25;30.90;67.30
28460;DHT22;32528;45.712;9.192;2023-09-12T12:49:25;31.10;68.70
28460;DHT22;32528;45.712;9.192;2023-09-12T12:51:26;31.40;67.90
28460;DHT22;32528;45.712;9.192;2023-09-12T12:53:36;31.40;67.00
28460;DHT22;32528;45.712;9.192;2023-09-12T12:55:37;31.40;66.90
28460;DHT22;32528;45.712;9.192;2023-09-12T12:57:39;31.50;68.40
28460;DHT22;32528;45.712;9.192;2023-09-12T12:59:44;31.30;66.80